createdAt,value
2022-10-08T00:00:45.156Z,7.15
2022-10-08T00:02:50.868Z,7.12
2022-10-08T00:04:56.625Z,7.11
2022-10-08T00:07:01.596Z,7.12
2022-10-08T00:09:07.330Z,7.09
2022-10-08T00:11:13.114Z,7.07
2022-10-08T00:13:18.891Z,7.04
2022-10-08T00:15:24.618Z,7.01
2022-10-08T00:17:30.569Z,7
2022-10-08T00:19:36.848Z,6.95
2022-10-08T00:21:42.799Z,6.93
2022-10-08T00:23:48.675Z,6.9
2022-10-08T00:25:54.712Z,6.87
2022-10-08T00:28:00.388Z,6.84
2022-10-08T00:30:06.193Z,6.81
2022-10-08T00:32:11.344Z,6.77
2022-10-08T00:34:16.870Z,6.79
2022-10-08T00:36:22.054Z,6.79
2022-10-08T00:38:27.358Z,6.78
2022-10-08T00:40:32.680Z,6.79
2022-10-08T00:42:38.165Z,6.75
2022-10-08T00:44:43.600Z,6.75
2022-10-08T00:46:48.939Z,6.75
2022-10-08T00:48:54.165Z,6.74
2022-10-08T00:50:59.583Z,6.72
2022-10-08T00:53:05.285Z,6.72
2022-10-08T00:55:10.398Z,6.74
2022-10-08T00:57:15.511Z,6.79
2022-10-08T00:59:21.055Z,6.85
2022-10-08T01:01:26.988Z,6.95
2022-10-08T01:03:32.589Z,7
2022-10-08T01:05:38.067Z,7.01
2022-10-08T01:07:43.635Z,7.06
2022-10-08T01:09:49.227Z,7.14
2022-10-08T01:11:54.475Z,7.19
2022-10-08T01:13:59.670Z,7.22
2022-10-08T01:16:05.189Z,7.26
2022-10-08T01:18:10.856Z,7.36
2022-10-08T01:20:16.731Z,7.35
2022-10-08T01:22:21.848Z,7.36
2022-10-08T01:24:27.025Z,7.38
2022-10-08T01:26:32.752Z,7.38
2022-10-08T01:28:38.164Z,7.41
2022-10-08T01:30:43.805Z,7.41
2022-10-08T01:32:50.009Z,7.4
2022-10-08T01:34:55.438Z,7.36
2022-10-08T01:37:01.300Z,7.36
2022-10-08T01:39:06.867Z,7.36
2022-10-08T01:41:12.090Z,7.34
2022-10-08T01:43:17.412Z,7.36
2022-10-08T01:45:22.668Z,7.38
2022-10-08T01:47:28.530Z,7.41
2022-10-08T01:49:33.683Z,7.42
2022-10-08T01:51:39.156Z,7.44
2022-10-08T01:53:44.322Z,7.45
2022-10-08T01:55:49.615Z,7.45
2022-10-08T01:57:54.505Z,7.44
2022-10-08T01:59:59.882Z,7.43
2022-10-08T02:02:05.121Z,7.41
2022-10-08T02:04:10.926Z,7.41
2022-10-08T02:06:16.304Z,7.41
2022-10-08T02:08:21.687Z,7.41
2022-10-08T02:10:27.148Z,7.46
2022-10-08T02:12:32.360Z,7.62
2022-10-08T02:14:37.414Z,7.69
2022-10-08T02:16:42.916Z,7.73
2022-10-08T02:18:48.856Z,7.72
2022-10-08T02:20:54.141Z,7.65
2022-10-08T02:22:59.299Z,7.58
2022-10-08T02:25:04.325Z,7.56
2022-10-08T02:27:09.843Z,7.52
2022-10-08T02:29:14.978Z,7.48
2022-10-08T02:31:20.423Z,7.48
2022-10-08T02:33:25.998Z,7.45
2022-10-08T02:35:31.436Z,7.46
2022-10-08T02:37:36.638Z,7.47
2022-10-08T02:39:41.904Z,7.48
2022-10-08T02:41:47.614Z,7.5
2022-10-08T02:43:53.013Z,7.5
2022-10-08T02:45:58.288Z,7.49
2022-10-08T02:48:03.494Z,7.49
2022-10-08T02:50:08.661Z,7.45
2022-10-08T02:52:14.330Z,7.41
2022-10-08T02:54:19.638Z,7.41
2022-10-08T02:56:24.642Z,7.44
2022-10-08T02:58:29.886Z,7.43
2022-10-08T03:00:35.000Z,7.45
2022-10-08T03:02:40.614Z,7.51
2022-10-08T03:04:46.579Z,7.63
2022-10-08T03:06:52.002Z,7.59
2022-10-08T03:08:57.104Z,7.62
2022-10-08T03:11:02.643Z,7.59
2022-10-08T03:13:08.119Z,7.47
2022-10-08T03:15:14.471Z,7.39
2022-10-08T03:17:19.881Z,7.44
2022-10-08T03:19:24.958Z,7.39
2022-10-08T03:21:30.056Z,7.4
2022-10-08T03:23:35.626Z,7.49
2022-10-08T03:25:40.906Z,7.49
2022-10-08T03:27:46.103Z,7.48
2022-10-08T03:29:51.309Z,7.41
2022-10-08T03:31:59.494Z,7.38
2022-10-08T03:34:04.544Z,7.34
2022-10-08T03:36:09.613Z,7.29
2022-10-08T03:38:14.894Z,7.28
2022-10-08T03:40:20.128Z,7.29
2022-10-08T03:42:26.144Z,7.26
2022-10-08T03:44:31.562Z,7.24
2022-10-08T03:46:36.819Z,7.26
2022-10-08T03:48:42.099Z,7.31
2022-10-08T03:50:47.442Z,7.29
2022-10-08T03:52:52.709Z,7.33
2022-10-08T03:54:57.994Z,7.29
2022-10-08T03:57:03.318Z,7.32
2022-10-08T03:59:09.171Z,7.43
2022-10-08T04:01:14.330Z,7.4
2022-10-08T04:03:19.834Z,7.39
2022-10-08T04:05:26.103Z,7.36
2022-10-08T04:07:31.341Z,7.33
2022-10-08T04:09:36.332Z,7.3
2022-10-08T04:11:41.420Z,7.32
2022-10-08T04:13:46.564Z,7.34
2022-10-08T04:15:51.903Z,7.35
2022-10-08T04:17:57.579Z,7.45
2022-10-08T04:20:03.022Z,7.58
2022-10-08T04:22:08.245Z,7.7
2022-10-08T04:24:13.614Z,7.8
2022-10-08T04:26:18.751Z,7.91
2022-10-08T04:28:24.116Z,7.99
2022-10-08T04:30:29.685Z,8.09
2022-10-08T04:32:34.822Z,8.17
2022-10-08T04:34:39.848Z,8.24
2022-10-08T04:36:45.075Z,8.3
2022-10-08T04:38:50.295Z,8.34
2022-10-08T04:40:55.504Z,8.38
2022-10-08T04:43:00.729Z,8.44
2022-10-08T04:45:05.818Z,8.53
2022-10-08T04:47:11.084Z,8.67
2022-10-08T04:49:16.354Z,8.71
2022-10-08T04:51:21.406Z,8.89
2022-10-08T04:53:26.827Z,8.94
2022-10-08T04:55:31.858Z,8.92
2022-10-08T04:57:37.250Z,8.94
2022-10-08T04:59:59.654Z,8.94
2022-10-08T05:02:23.434Z,8.98
2022-10-08T05:04:28.894Z,9.02
2022-10-08T05:06:35.073Z,9.16
2022-10-08T05:08:40.745Z,9.28
2022-10-08T05:10:46.279Z,9.33
2022-10-08T05:12:52.289Z,9.41
2022-10-08T05:14:58.005Z,9.43
2022-10-08T05:17:04.058Z,9.41
2022-10-08T05:19:10.135Z,9.44
2022-10-08T05:21:16.287Z,9.45
2022-10-08T05:23:22.249Z,9.48
2022-10-08T05:25:28.138Z,9.48
2022-10-08T05:27:33.993Z,9.5
2022-10-08T05:29:40.406Z,9.66
2022-10-08T05:31:46.110Z,9.72
2022-10-08T05:33:52.295Z,9.75
2022-10-08T05:35:58.472Z,9.85
2022-10-08T05:38:05.753Z,9.86
2022-10-08T05:40:13.268Z,9.83
2022-10-08T05:42:19.513Z,9.74
2022-10-08T05:44:25.634Z,9.74
2022-10-08T05:46:34.032Z,9.65
2022-10-08T05:48:40.507Z,9.62
2022-10-08T05:50:46.728Z,9.55
2022-10-08T05:52:54.522Z,9.46
2022-10-08T05:55:00.510Z,9.44
2022-10-08T05:57:06.629Z,9.39
2022-10-08T05:59:13.849Z,9.35
2022-10-08T06:01:20.041Z,9.33
2022-10-08T06:03:25.915Z,9.31
2022-10-08T06:05:32.029Z,9.36
2022-10-08T06:07:38.225Z,9.34
2022-10-08T06:09:44.202Z,9.4
2022-10-08T06:11:50.159Z,9.45
2022-10-08T06:13:56.357Z,9.45
2022-10-08T06:16:02.555Z,9.45
2022-10-08T06:18:08.884Z,9.6
2022-10-08T06:20:15.155Z,9.8
2022-10-08T06:24:41.686Z,10.25
2022-10-08T06:26:48.132Z,10.47
2022-10-08T06:28:54.327Z,10.62
2022-10-08T06:31:00.238Z,10.76
2022-10-08T06:33:06.674Z,10.99
2022-10-08T06:35:16.013Z,11.15
2022-10-08T06:37:22.053Z,11.31
2022-10-08T06:39:28.203Z,11.42
2022-10-08T06:41:35.475Z,11.53
2022-10-08T06:43:41.699Z,11.62
2022-10-08T06:45:47.978Z,11.73
2022-10-08T06:47:54.335Z,11.79
2022-10-08T06:50:01.835Z,11.87
2022-10-08T06:52:08.081Z,11.94
2022-10-08T06:54:14.046Z,11.97
2022-10-08T06:56:20.349Z,12.18
2022-10-08T06:58:26.692Z,12.19
2022-10-08T07:00:32.914Z,12.21
2022-10-08T07:02:42.048Z,12.31
2022-10-08T07:04:49.728Z,12.5
2022-10-08T07:06:57.164Z,12.8
2022-10-08T07:09:03.517Z,13.09
2022-10-08T07:11:09.908Z,13.39
2022-10-08T07:13:16.317Z,13.56
2022-10-08T07:15:22.730Z,13.87
2022-10-08T07:17:28.915Z,13.96
2022-10-08T07:19:35.907Z,14.21
2022-10-08T07:21:42.599Z,14.39
2022-10-08T07:23:48.646Z,14.51
2022-10-08T07:25:54.694Z,14.71
2022-10-08T07:28:00.817Z,14.83
2022-10-08T07:30:07.576Z,14.91
2022-10-08T07:32:13.960Z,15.02
2022-10-08T07:34:20.233Z,15.15
2022-10-08T07:36:26.569Z,15.23
2022-10-08T07:38:32.622Z,15.31
2022-10-08T07:40:38.965Z,15.38
2022-10-08T07:42:49.326Z,15.36
2022-10-08T07:44:56.519Z,15.43
2022-10-08T07:47:02.529Z,15.48
2022-10-08T07:49:09.240Z,15.54
2022-10-08T07:51:15.386Z,15.55
2022-10-08T07:53:21.792Z,15.49
2022-10-08T07:55:28.151Z,15.46
2022-10-08T07:57:34.609Z,15.43
2022-10-08T07:59:40.801Z,15.42
2022-10-08T08:01:47.972Z,15.38
2022-10-08T08:03:55.711Z,15.42
2022-10-08T08:06:01.772Z,15.51
2022-10-08T08:08:08.286Z,15.66
2022-10-08T08:10:14.768Z,15.59
2022-10-08T08:12:20.697Z,15.59
2022-10-08T08:14:27.079Z,15.7
2022-10-08T08:16:35.664Z,15.75
2022-10-08T08:18:42.306Z,15.96
2022-10-08T08:20:48.960Z,16.07
2022-10-08T08:22:55.300Z,16.15
2022-10-08T08:25:01.601Z,16.04
2022-10-08T08:27:08.748Z,16.23
2022-10-08T08:29:15.622Z,16.27
2022-10-08T08:31:22.210Z,16.58
2022-10-08T08:33:28.271Z,16.81
2022-10-08T08:35:35.392Z,16.98
2022-10-08T08:37:42.908Z,17.04
2022-10-08T08:39:49.216Z,17.27
2022-10-08T08:41:55.939Z,17.13
2022-10-08T08:44:02.603Z,16.99
2022-10-08T08:46:08.901Z,16.96
2022-10-08T08:48:16.587Z,17.02
2022-10-08T08:50:24.269Z,17.29
2022-10-08T08:52:31.134Z,17.47
2022-10-08T08:54:38.838Z,17.63
2022-10-08T08:56:45.815Z,17.73
2022-10-08T08:58:52.454Z,17.73
2022-10-08T09:01:00.177Z,18.1
2022-10-08T09:03:08.501Z,18.86
2022-10-08T09:05:15.007Z,18.82
2022-10-08T09:07:23.996Z,19.01
2022-10-08T09:09:32.396Z,18.59
2022-10-08T09:11:39.052Z,19.17
2022-10-08T09:13:45.690Z,19.53
2022-10-08T09:15:53.481Z,19.78
2022-10-08T09:17:59.838Z,19.66
2022-10-08T09:20:08.409Z,19.9
2022-10-08T09:22:14.760Z,19.29
2022-10-08T09:24:20.962Z,19.99
2022-10-08T09:26:27.428Z,19.85
2022-10-08T09:28:34.645Z,20.01
2022-10-08T09:30:41.732Z,19.42
2022-10-08T09:32:49.508Z,19.59
2022-10-08T09:34:56.523Z,20
2022-10-08T09:37:02.816Z,21.2
2022-10-08T09:39:09.380Z,21.77
2022-10-08T09:41:17.162Z,21.51
2022-10-08T09:43:23.627Z,20.86
2022-10-08T09:45:30.054Z,21.07
2022-10-08T09:47:36.373Z,21.43
2022-10-08T09:49:43.122Z,21.97
2022-10-08T09:51:49.756Z,21.76
2022-10-08T09:53:56.277Z,21.38
2022-10-08T09:56:02.974Z,20.83
2022-10-08T09:58:09.670Z,21.86
2022-10-08T10:00:17.033Z,23.21
2022-10-08T10:02:23.288Z,22.5
2022-10-08T10:04:29.459Z,23.18
2022-10-08T10:06:35.687Z,22.93
2022-10-08T10:08:42.108Z,22.97
2022-10-08T10:10:49.091Z,21.98
2022-10-08T10:13:00.964Z,21.75
2022-10-08T10:15:07.807Z,21.92
2022-10-08T10:19:23.486Z,22.66
2022-10-08T10:21:29.952Z,22.56
2022-10-08T10:23:36.372Z,22.77
2022-10-08T10:25:42.975Z,22.52
2022-10-08T10:27:49.397Z,23.07
2022-10-08T10:29:56.858Z,22.46
2022-10-08T10:32:03.097Z,22.95
2022-10-08T10:34:09.607Z,21.88
2022-10-08T10:36:16.221Z,22.77
2022-10-08T10:38:22.270Z,22.85
2022-10-08T10:40:28.588Z,23.97
2022-10-08T10:42:34.766Z,23.4
2022-10-08T10:44:41.238Z,23.89
2022-10-08T10:46:47.770Z,22.2
2022-10-08T10:48:54.200Z,22.16
2022-10-08T10:51:01.404Z,22.73
2022-10-08T10:53:07.752Z,23.48
2022-10-08T10:55:14.279Z,23.65
2022-10-08T10:57:20.618Z,24.83
2022-10-08T10:59:26.928Z,23.5
2022-10-08T11:01:33.496Z,22.29
2022-10-08T11:03:40.153Z,21.2
2022-10-08T11:05:46.435Z,20.14
2022-10-08T11:07:52.745Z,20.1
2022-10-08T11:09:58.995Z,20.09
2022-10-08T11:12:05.205Z,19.75
2022-10-08T11:14:11.381Z,19.5
2022-10-08T11:16:17.923Z,19.36
2022-10-08T11:18:24.848Z,19.21
2022-10-08T11:20:31.857Z,19.08
2022-10-08T11:22:38.216Z,19.02
2022-10-08T11:24:44.861Z,19.09
2022-10-08T11:26:51.358Z,19.07
2022-10-08T11:28:58.072Z,19.08
2022-10-08T11:31:04.219Z,19.17
2022-10-08T11:33:11.466Z,19.35
2022-10-08T11:35:17.872Z,19.12
2022-10-08T11:37:24.388Z,19.13
2022-10-08T11:39:30.669Z,19.06
2022-10-08T11:41:36.940Z,19.11
2022-10-08T11:43:43.566Z,19.39
2022-10-08T11:45:50.942Z,19.5
2022-10-08T11:47:57.652Z,19.46
2022-10-08T11:50:06.469Z,19.63
2022-10-08T11:52:12.615Z,19.61
2022-10-08T11:54:18.893Z,19.66
2022-10-08T11:56:25.316Z,19.22
2022-10-08T11:58:31.515Z,19.01
2022-10-08T12:00:37.853Z,18.95
2022-10-08T12:02:44.644Z,18.96
2022-10-08T12:04:53.938Z,18.89
2022-10-08T12:07:00.405Z,18.86
2022-10-08T12:09:06.769Z,18.74
2022-10-08T12:11:13.560Z,18.73
2022-10-08T12:13:19.948Z,18.75
2022-10-08T12:15:26.271Z,18.71
2022-10-08T12:17:33.519Z,18.82
2022-10-08T12:19:39.937Z,18.85
2022-10-08T12:21:46.556Z,18.98
2022-10-08T12:23:53.207Z,19.01
2022-10-08T12:25:59.561Z,19.03
2022-10-08T12:28:06.455Z,18.99
2022-10-08T12:30:13.215Z,18.91
2022-10-08T12:32:20.420Z,18.83
2022-10-08T12:34:26.910Z,18.82
2022-10-08T12:36:33.772Z,18.83
2022-10-08T12:38:40.030Z,18.87
2022-10-08T12:40:46.960Z,18.9
2022-10-08T12:42:53.546Z,18.86
2022-10-08T12:45:00.241Z,18.83
2022-10-08T12:47:06.543Z,18.87
2022-10-08T12:49:16.383Z,19
2022-10-08T12:51:22.864Z,19.17
2022-10-08T12:53:29.107Z,19.2
2022-10-08T12:55:38.124Z,19.33
2022-10-08T12:57:44.526Z,19.43
2022-10-08T12:59:52.561Z,19.38
2022-10-08T13:01:59.093Z,19.37
2022-10-08T13:04:07.966Z,19.51
2022-10-08T13:06:14.690Z,19.47
2022-10-08T13:08:20.934Z,19.57
2022-10-08T13:10:27.243Z,19.48
2022-10-08T13:12:33.662Z,19.53
2022-10-08T13:14:40.247Z,19.51
2022-10-08T13:16:48.001Z,19.5
2022-10-08T13:18:56.554Z,19.29
2022-10-08T13:21:02.862Z,19.41
2022-10-08T13:23:10.359Z,19.33
2022-10-08T13:25:20.539Z,19.4
2022-10-08T13:27:26.963Z,19.28
2022-10-08T13:29:33.270Z,19.22
2022-10-08T13:31:40.379Z,19.26
2022-10-08T13:33:48.145Z,19.17
2022-10-08T13:35:54.737Z,19.22
2022-10-08T13:38:01.521Z,19.09
2022-10-08T13:40:08.325Z,18.98
2022-10-08T13:42:15.265Z,18.92
2022-10-08T13:44:21.954Z,18.93
2022-10-08T13:46:28.343Z,18.88
2022-10-08T13:48:34.776Z,18.95
2022-10-08T13:50:41.596Z,18.86
2022-10-08T13:52:48.226Z,18.81
2022-10-08T13:54:54.488Z,18.71
2022-10-08T13:57:03.734Z,18.65
2022-10-08T13:59:10.001Z,18.66
2022-10-08T14:01:16.318Z,18.74
2022-10-08T14:03:22.939Z,18.74
2022-10-08T14:05:31.346Z,18.72
2022-10-08T14:07:39.666Z,18.79
2022-10-08T14:09:46.324Z,18.81
2022-10-08T14:11:52.934Z,18.77
2022-10-08T14:13:59.119Z,18.9
2022-10-08T14:16:05.710Z,18.87
2022-10-08T14:18:12.780Z,18.82
2022-10-08T14:20:19.327Z,18.79
2022-10-08T14:22:25.664Z,18.81
2022-10-08T14:24:32.576Z,18.78
2022-10-08T14:26:38.837Z,18.79
2022-10-08T14:28:45.401Z,18.76
2022-10-08T14:30:53.216Z,18.72
2022-10-08T14:33:00.128Z,18.69
2022-10-08T14:35:13.966Z,18.65
2022-10-08T14:37:19.983Z,18.58
2022-10-08T14:39:26.596Z,18.48
2022-10-08T14:41:33.972Z,18.47
2022-10-08T14:43:42.456Z,18.34
2022-10-08T14:45:49.034Z,18.26
2022-10-08T14:47:57.250Z,18.22
2022-10-08T14:50:03.923Z,18.19
2022-10-08T14:52:10.848Z,18.2
2022-10-08T14:54:16.846Z,18.13
2022-10-08T14:56:22.889Z,18.09
2022-10-08T14:58:29.078Z,18.05
2022-10-08T15:00:35.359Z,17.93
2022-10-08T15:02:41.928Z,17.78
2022-10-08T15:04:50.863Z,17.71
2022-10-08T15:06:57.825Z,17.65
2022-10-08T15:09:04.216Z,17.52
2022-10-08T15:11:10.523Z,17.42
2022-10-08T15:13:16.869Z,17.32
2022-10-08T15:15:23.245Z,17.23
2022-10-08T15:17:29.718Z,17.12
2022-10-08T15:19:36.418Z,17.01
2022-10-08T15:21:43.772Z,16.9
2022-10-08T15:23:51.033Z,16.75
2022-10-08T15:25:57.686Z,16.63
2022-10-08T15:28:04.949Z,16.53
2022-10-08T15:30:13.905Z,16.44
2022-10-08T15:32:20.406Z,16.25
2022-10-08T15:34:32.943Z,16.15
2022-10-08T15:36:39.739Z,15.98
2022-10-08T15:38:46.223Z,15.92
2022-10-08T15:40:52.686Z,15.83
2022-10-08T15:42:59.222Z,15.73
2022-10-08T15:45:05.383Z,15.63
2022-10-08T15:47:11.946Z,15.52
2022-10-08T15:49:18.993Z,15.44
2022-10-08T15:51:25.215Z,15.4
2022-10-08T15:53:31.757Z,15.34
2022-10-08T15:55:38.153Z,15.29
2022-10-08T15:57:45.224Z,15.27
2022-10-08T15:59:52.652Z,15.25
2022-10-08T16:01:58.882Z,15.24
2022-10-08T16:04:05.830Z,15.23
2022-10-08T16:06:11.999Z,15.18
2022-10-08T16:08:18.275Z,15.18
2022-10-08T16:10:24.954Z,15.18
2022-10-08T16:12:31.293Z,15.16
2022-10-08T16:14:37.812Z,15.16
2022-10-08T16:16:44.198Z,15.17
2022-10-08T16:18:51.470Z,15.2
2022-10-08T16:20:58.133Z,15.26
2022-10-08T16:23:04.966Z,15.46
2022-10-08T16:25:11.332Z,15.59
2022-10-08T16:27:18.154Z,15.68
2022-10-08T16:29:24.824Z,15.75
2022-10-08T16:31:32.521Z,15.83
2022-10-08T16:33:38.901Z,15.81
2022-10-08T16:35:45.286Z,15.78
2022-10-08T16:37:51.895Z,15.73
2022-10-08T16:40:02.422Z,15.67
2022-10-08T16:42:09.040Z,15.62
2022-10-08T16:44:18.272Z,15.61
2022-10-08T16:48:53.337Z,15.58
2022-10-08T16:51:00.460Z,15.6
2022-10-08T16:53:08.039Z,15.68
2022-10-08T16:55:14.295Z,15.7
2022-10-08T16:57:21.250Z,15.72
2022-10-08T16:59:27.873Z,15.7
2022-10-08T17:01:35.872Z,15.66
2022-10-08T17:03:43.328Z,15.64
2022-10-08T17:05:50.132Z,15.61
2022-10-08T17:07:57.011Z,15.55
2022-10-08T17:10:04.006Z,15.55
2022-10-08T17:12:11.628Z,15.49
2022-10-08T17:14:26.315Z,15.35
2022-10-08T17:16:33.506Z,15.25
2022-10-08T17:18:41.162Z,15.16
2022-10-08T17:20:49.591Z,15.14
2022-10-08T17:22:57.986Z,15.07
2022-10-08T17:25:05.837Z,15.03
2022-10-08T17:27:15.447Z,15.02
2022-10-08T17:29:23.471Z,14.99
2022-10-08T17:31:32.111Z,14.98
2022-10-08T17:33:42.261Z,14.97
2022-10-08T17:35:50.957Z,14.93
2022-10-08T17:37:58.457Z,14.88
2022-10-08T17:40:06.686Z,14.87
2022-10-08T17:42:13.635Z,14.86
2022-10-08T17:44:21.289Z,14.86
2022-10-08T17:46:30.318Z,14.81
2022-10-08T17:48:40.314Z,14.83
2022-10-08T17:50:48.144Z,14.82
2022-10-08T17:52:59.123Z,14.81
2022-10-08T17:55:07.621Z,14.79
2022-10-08T17:57:19.897Z,14.79
2022-10-08T17:59:28.788Z,14.79
2022-10-08T18:01:41.358Z,14.79
2022-10-08T18:03:53.382Z,14.76
2022-10-08T18:06:01.649Z,14.75
2022-10-08T18:08:11.490Z,14.73
2022-10-08T18:10:19.139Z,14.7
2022-10-08T18:12:27.351Z,14.66
2022-10-08T18:14:35.511Z,14.62
2022-10-08T18:16:47.808Z,14.61
2022-10-08T18:18:55.645Z,14.6
2022-10-08T18:21:08.479Z,14.58
2022-10-08T18:23:16.728Z,14.58
2022-10-08T18:25:26.520Z,14.54
2022-10-08T18:27:33.064Z,14.51
2022-10-08T18:29:43.399Z,14.48
2022-10-08T18:31:50.965Z,14.44
2022-10-08T18:33:59.746Z,14.41
2022-10-08T18:36:06.942Z,14.38
2022-10-08T18:38:15.132Z,14.34
2022-10-08T18:40:24.172Z,14.26
2022-10-08T18:42:33.459Z,14.23
2022-10-08T18:44:43.686Z,14.16
2022-10-08T18:47:00.649Z,14.04
2022-10-08T18:49:12.826Z,13.97
2022-10-08T18:51:23.741Z,13.97
2022-10-08T18:53:31.538Z,13.94
2022-10-08T18:55:46.504Z,13.9
2022-10-08T18:57:56.199Z,13.87
2022-10-08T19:00:03.738Z,13.84
2022-10-08T19:02:13.354Z,13.83
2022-10-08T19:04:21.893Z,13.78
2022-10-08T19:06:30.054Z,13.74
2022-10-08T19:08:38.530Z,13.7
2022-10-08T19:10:45.921Z,13.68
2022-10-08T19:12:53.579Z,13.67
2022-10-08T19:15:01.407Z,13.66
2022-10-08T19:17:09.755Z,13.65
2022-10-08T19:19:17.262Z,13.63
2022-10-08T19:21:25.001Z,13.6
2022-10-08T19:23:32.656Z,13.55
2022-10-08T19:25:42.591Z,13.51
2022-10-08T19:27:50.451Z,13.51
2022-10-08T19:30:01.006Z,13.48
2022-10-08T19:32:08.475Z,13.45
2022-10-08T19:34:16.465Z,13.4
2022-10-08T19:36:38.207Z,13.41
2022-10-08T19:38:50.038Z,13.37
2022-10-08T19:40:59.525Z,13.33
2022-10-08T19:43:10.876Z,13.32
2022-10-08T19:45:18.618Z,13.3
2022-10-08T19:47:28.486Z,13.32
2022-10-08T19:49:35.951Z,13.32
2022-10-08T19:51:43.992Z,13.35
2022-10-08T19:53:58.104Z,13.34
2022-10-08T19:56:09.305Z,13.34
2022-10-08T19:58:17.241Z,13.29
2022-10-08T20:00:31.382Z,13.26
2022-10-08T20:02:38.058Z,13.25
2022-10-08T20:04:44.870Z,13.23
2022-10-08T20:06:54.512Z,13.21
2022-10-08T20:09:02.609Z,13.18
2022-10-08T20:11:09.655Z,13.15
2022-10-08T20:13:18.508Z,13.12
2022-10-08T20:15:28.418Z,13.09
2022-10-08T20:17:35.786Z,13.03
2022-10-08T20:19:42.149Z,13.02
2022-10-08T20:21:48.387Z,13
2022-10-08T20:23:55.646Z,12.96
2022-10-08T20:26:02.906Z,12.93
2022-10-08T20:28:10.268Z,12.93
2022-10-08T20:30:17.734Z,12.93
2022-10-08T20:32:24.269Z,12.89
2022-10-08T20:34:30.564Z,12.88
2022-10-08T20:36:38.217Z,12.86
2022-10-08T20:38:44.875Z,12.85
2022-10-08T20:40:52.214Z,12.87
2022-10-08T20:42:58.403Z,12.87
2022-10-08T20:45:06.288Z,12.84
2022-10-08T20:47:14.008Z,12.82
2022-10-08T20:49:20.810Z,12.8
2022-10-08T20:51:27.030Z,12.77
2022-10-08T20:53:33.581Z,12.75
2022-10-08T20:55:40.083Z,12.69
2022-10-08T20:57:49.270Z,12.63
2022-10-08T20:59:55.556Z,12.59
2022-10-08T21:02:01.884Z,12.56
2022-10-08T21:04:08.559Z,12.53
2022-10-08T21:06:15.845Z,12.51
2022-10-08T21:08:22.740Z,12.51
2022-10-08T21:10:29.334Z,12.47
2022-10-08T21:12:35.891Z,12.44
2022-10-08T21:14:46.163Z,12.45
2022-10-08T21:16:52.569Z,12.42
2022-10-08T21:18:58.830Z,12.37
2022-10-08T21:21:05.567Z,12.36
2022-10-08T21:23:12.053Z,12.37
2022-10-08T21:25:19.133Z,12.38
2022-10-08T21:27:25.874Z,12.39
2022-10-08T21:29:32.088Z,12.4
2022-10-08T21:31:37.705Z,12.44
2022-10-08T21:33:45.168Z,12.49
2022-10-08T21:35:54.250Z,12.49
2022-10-08T21:38:00.155Z,12.45
2022-10-08T21:40:06.043Z,12.41
2022-10-08T21:42:12.652Z,12.36
2022-10-08T21:44:20.414Z,12.34
2022-10-08T21:46:27.084Z,12.31
2022-10-08T21:48:32.572Z,12.29
2022-10-08T21:50:38.409Z,12.26
2022-10-08T21:52:45.484Z,12.22
2022-10-08T21:54:53.906Z,12.17
2022-10-08T21:56:59.793Z,12.15
2022-10-08T21:59:06.600Z,12.08
2022-10-08T22:01:12.874Z,12.03
2022-10-08T22:03:19.651Z,12.03
2022-10-08T22:05:29.756Z,12.04
2022-10-08T22:07:35.598Z,12.03
2022-10-08T22:09:41.305Z,12.03
2022-10-08T22:11:47.970Z,11.98
2022-10-08T22:13:54.263Z,11.96
2022-10-08T22:16:00.904Z,11.93
2022-10-08T22:18:07.323Z,11.88
2022-10-08T22:20:15.693Z,11.8
2022-10-08T22:22:22.049Z,11.8
2022-10-08T22:24:28.400Z,11.8
2022-10-08T22:26:33.953Z,11.81
2022-10-08T22:28:39.233Z,11.82
2022-10-08T22:30:44.757Z,11.81
2022-10-08T22:32:50.678Z,11.72
2022-10-08T22:35:00.060Z,11.69
2022-10-08T22:37:05.937Z,11.66
2022-10-08T22:39:11.232Z,11.62
2022-10-08T22:41:16.961Z,11.55
2022-10-08T22:43:22.654Z,11.47
2022-10-08T22:45:28.622Z,11.4
2022-10-08T22:47:34.344Z,11.35
2022-10-08T22:49:40.859Z,11.3
2022-10-08T22:51:47.422Z,11.26
2022-10-08T22:53:53.376Z,11.21
2022-10-08T22:55:59.275Z,11.16
2022-10-08T22:58:04.902Z,11.07
2022-10-08T23:00:10.142Z,11.03
2022-10-08T23:02:15.353Z,10.92
2022-10-08T23:04:21.023Z,10.84
2022-10-08T23:06:26.547Z,10.81
2022-10-08T23:08:31.804Z,10.74
2022-10-08T23:10:37.342Z,10.69
2022-10-08T23:12:43.159Z,10.78
2022-10-08T23:14:49.896Z,10.77
2022-10-08T23:16:55.907Z,10.74
2022-10-08T23:19:02.507Z,10.67
2022-10-08T23:21:08.624Z,10.59
2022-10-08T23:23:14.079Z,10.51
2022-10-08T23:25:19.204Z,10.44
2022-10-08T23:27:24.433Z,10.43
2022-10-08T23:29:29.715Z,10.52
2022-10-08T23:31:35.153Z,10.56
2022-10-08T23:33:40.702Z,10.61
2022-10-08T23:35:46.333Z,10.61
2022-10-08T23:37:51.550Z,10.59
2022-10-08T23:39:58.069Z,10.53
2022-10-08T23:42:03.502Z,10.48
2022-10-08T23:44:08.856Z,10.42
2022-10-08T23:46:14.532Z,10.31
2022-10-08T23:48:20.244Z,10.24
2022-10-08T23:50:25.626Z,10.15
2022-10-08T23:52:30.967Z,10.06
2022-10-08T23:54:36.181Z,10.09
2022-10-08T23:56:41.421Z,10.13
2022-10-08T23:58:46.996Z,10.11
